Time;durP1;ratioP1;P1;durP2;ratioP2;P2;SDS_P1;SDS_P2;PMS_P1;PMS_P2;Temp;Humidity;BMP_temperature;BMP_pressure;BME280_temperature;BME280_humidity;BME280_pressure;Samples;Min_cycle;Max_cycle;Signal;HPM_P1;HPM_P2
2022/08/08 00:01:53;;;;;;;2.17;1.30;;;19.50;69.60;;;;;;5035622;28;20387;-71
2022/08/08 00:04:41;;;;;;;2.80;1.37;;;19.60;69.50;;;;;;5035327;28;20382;-70
2022/08/08 00:07:35;;;;;;;1.83;1.70;;;19.60;69.70;;;;;;5017343;28;20426;-70
2022/08/08 00:10:19;;;;;;;4.17;1.50;;;19.70;70.00;;;;;;4999210;28;20410;-70
2022/08/08 00:13:16;;;;;;;1.63;1.50;;;19.60;70.40;;;;;;5035321;28;20993;-71
2022/08/08 00:15:53;;;;;;;1.60;1.50;;;19.70;70.70;;;;;;5034530;28;20496;-70
2022/08/08 00:18:48;;;;;;;1.70;1.20;;;19.70;70.50;;;;;;5034887;28;20386;-70
2022/08/08 00:21:24;;;;;;;2.23;1.27;;;19.50;70.50;;;;;;5035097;28;20409;-70
2022/08/08 00:23:53;;;;;;;1.30;1.20;;;19.60;71.00;;;;;;5035553;28;20724;-71
2022/08/08 00:26:40;;;;;;;1.80;1.43;;;19.60;70.70;;;;;;5034529;28;20442;-71
2022/08/08 00:29:24;;;;;;;1.60;1.30;;;19.70;70.70;;;;;;5033548;28;20433;-70
2022/08/08 00:31:53;;;;;;;1.73;1.20;;;19.60;70.90;;;;;;5035135;28;20437;-70
2022/08/08 00:38:03;;;;;;;1.57;1.37;;;19.20;72.70;;;;;;5033635;28;20429;-70
2022/08/08 00:40:29;;;;;;;2.13;1.23;;;19.10;73.00;;;;;;5023477;28;20417;-70
2022/08/08 00:43:25;;;;;;;1.37;1.20;;;19.20;73.50;;;;;;5034739;28;20460;-70
2022/08/08 00:46:41;;;;;;;2.83;1.30;;;19.20;72.60;;;;;;5034397;28;20709;-70
2022/08/08 00:49:37;;;;;;;2.13;1.20;;;19.20;72.50;;;;;;4971166;28;20514;-70
2022/08/08 00:52:11;;;;;;;1.63;1.50;;;19.20;73.10;;;;;;5019348;28;20446;-70
2022/08/08 00:54:45;;;;;;;1.63;1.20;;;18.90;73.00;;;;;;5034197;28;20387;-71
2022/08/08 00:57:22;;;;;;;1.60;1.30;;;18.80;73.80;;;;;;5034149;28;20428;-70
2022/08/08 01:00:12;;;;;;;2.40;1.83;;;18.70;74.10;;;;;;5031010;28;20405;-70
2022/08/08 01:03:10;;;;;;;1.73;1.63;;;18.70;74.40;;;;;;5034204;28;20444;-70
2022/08/08 01:06:02;;;;;;;2.13;1.40;;;18.90;74.90;;;;;;5034077;28;20503;-70
2022/08/08 01:08:43;;;;;;;2.13;1.93;;;19.10;74.70;;;;;;5034014;28;20473;-71
2022/08/08 01:11:33;;;;;;;1.90;1.63;;;18.90;74.90;;;;;;5034025;28;20394;-70
2022/08/08 01:14:16;;;;;;;2.03;1.53;;;18.90;75.70;;;;;;5034383;28;20514;-68
2022/08/08 01:17:01;;;;;;;2.20;1.53;;;18.90;75.90;;;;;;5041833;28;20518;-70
2022/08/08 01:19:52;;;;;;;2.50;1.77;;;18.70;75.90;;;;;;5054026;28;20378;-71
2022/08/08 01:22:43;;;;;;;2.03;1.50;;;18.80;76.90;;;;;;5053152;28;20436;-70
2022/08/08 01:25:28;;;;;;;2.60;1.60;;;18.70;76.80;;;;;;5054072;28;20390;-70
2022/08/08 01:27:59;;;;;;;3.83;1.77;;;18.60;77.40;;;;;;5038367;28;20540;-70
2022/08/08 01:30:40;;;;;;;1.97;1.87;;;18.60;77.80;;;;;;5033411;28;20413;-70
2022/08/08 01:33:15;;;;;;;4.70;1.40;;;18.60;78.20;;;;;;5032579;28;20548;-71
2022/08/08 01:36:11;;;;;;;1.63;1.53;;;18.60;78.00;;;;;;5033451;28;20420;-70
2022/08/08 01:38:55;;;;;;;1.73;1.40;;;18.60;78.40;;;;;;5032394;28;20417;-70
2022/08/08 01:41:30;;;;;;;1.70;1.60;;;18.50;79.10;;;;;;5033602;28;20410;-70
2022/08/08 01:44:02;;;;;;;2.40;1.80;;;18.40;79.30;;;;;;5033849;28;20382;-70
2022/08/08 01:46:46;;;;;;;1.80;1.33;;;18.40;79.40;;;;;;5033789;28;20433;-70
2022/08/08 01:49:30;;;;;;;1.60;1.50;;;18.40;79.00;;;;;;5014437;28;20991;-69
2022/08/08 01:52:18;;;;;;;1.60;1.40;;;18.50;79.10;;;;;;5033666;28;20449;-69
2022/08/08 01:55:06;;;;;;;2.10;1.60;;;18.40;79.50;;;;;;5033768;28;20387;-69
2022/08/08 01:57:48;;;;;;;2.97;1.63;;;18.40;80.50;;;;;;5032885;28;20413;-69
2022/08/08 02:00:26;;;;;;;2.70;1.50;;;18.40;80.00;;;;;;5033582;28;20815;-69
2022/08/08 02:03:10;;;;;;;2.43;1.43;;;18.20;80.80;;;;;;5033637;28;20401;-69
2022/08/08 02:06:03;;;;;;;1.93;1.63;;;18.20;81.10;;;;;;5033120;28;20389;-68
2022/08/08 02:08:37;;;;;;;3.67;1.33;;;18.40;81.40;;;;;;5033224;28;20409;-70
2022/08/08 02:11:24;;;;;;;2.60;1.73;;;18.40;81.20;;;;;;5033226;28;20382;-71
2022/08/08 02:13:56;;;;;;;1.83;1.20;;;18.50;81.10;;;;;;5014165;28;20441;-71
2022/08/08 02:16:45;;;;;;;2.13;1.33;;;18.40;81.40;;;;;;5013376;28;20790;-71
2022/08/08 02:19:21;;;;;;;2.07;1.60;;;18.50;81.00;;;;;;5013506;28;20427;-70
2022/08/08 02:25:05;;;;;;;1.83;1.40;;;18.30;81.70;;;;;;5025878;28;21003;-70
2022/08/08 02:27:41;;;;;;;1.87;1.40;;;18.20;82.50;;;;;;5057097;23;20559;-67
2022/08/08 02:30:20;;;;;;;1.60;1.50;;;18.10;83.10;;;;;;5031364;28;20431;-67
2022/08/08 02:33:11;;;;;;;1.97;1.67;;;18.10;82.90;;;;;;5016261;28;20507;-67
2022/08/08 02:35:37;;;;;;;1.30;1.17;;;18.10;83.00;;;;;;5036948;28;20374;-67
2022/08/08 02:38:11;;;;;;;2.13;1.40;;;18.10;83.20;;;;;;5036066;28;20429;-67
2022/08/08 02:41:00;;;;;;;1.70;1.60;;;18.10;83.10;;;;;;5018691;28;20163;-67
2022/08/08 02:43:43;;;;;;;1.70;1.50;;;18.10;83.10;;;;;;5037280;28;20386;-67
2022/08/08 02:46:41;;;;;;;2.43;1.13;;;18.20;84.00;;;;;;5036394;28;20801;-67
2022/08/08 02:49:30;;;;;;;2.23;1.47;;;18.20;83.80;;;;;;4992611;28;20454;-67
2022/08/08 02:52:22;;;;;;;2.57;1.37;;;18.10;84.70;;;;;;5036402;28;20521;-68
2022/08/08 02:55:03;;;;;;;1.53;1.43;;;18.10;84.70;;;;;;5036710;28;20780;-68
2022/08/08 02:58:03;;;;;;;1.30;1.20;;;18.10;84.80;;;;;;5036270;28;20847;-67
2022/08/08 03:00:47;;;;;;;3.17;1.57;;;18.10;85.00;;;;;;5033917;28;20424;-67
2022/08/08 03:03:46;;;;;;;1.63;1.33;;;18.10;85.60;;;;;;5036451;28;20393;-68
2022/08/08 03:06:22;;;;;;;1.67;1.57;;;18.10;86.70;;;;;;5036297;28;20388;-68
2022/08/08 03:09:21;;;;;;;2.60;1.47;;;18.00;86.00;;;;;;5035755;28;20424;-68
2022/08/08 03:11:55;;;;;;;1.60;1.30;;;18.00;86.30;;;;;;5036139;28;20441;-67
2022/08/08 03:14:50;;;;;;;2.43;2.17;;;17.80;87.00;;;;;;5036139;28;20515;-67
2022/08/08 03:17:51;;;;;;;1.83;1.30;;;17.80;87.40;;;;;;5035746;28;20431;-67
2022/08/08 03:20:17;;;;;;;2.80;1.77;;;17.80;87.80;;;;;;5003525;28;20413;-67
2022/08/08 03:22:50;;;;;;;2.03;1.83;;;17.60;88.50;;;;;;5035876;28;20402;-68
2022/08/08 03:25:19;;;;;;;1.47;1.37;;;17.60;88.80;;;;;;5035880;28;20177;-68
2022/08/08 03:27:51;;;;;;;1.50;1.30;;;17.80;88.60;;;;;;5035508;28;20443;-68
2022/08/08 03:30:19;;;;;;;1.57;1.47;;;17.70;88.90;;;;;;5035273;28;20410;-68
2022/08/08 03:35:35;;;;;;;1.70;1.50;;;17.60;90.10;;;;;;5036035;28;20525;-68
2022/08/08 03:38:01;;;;;;;3.40;1.97;;;17.60;90.20;;;;;;5035578;28;20970;-67
2022/08/08 03:40:27;;;;;;;1.60;1.50;;;17.70;90.60;;;;;;5035651;28;20484;-68
2022/08/08 03:42:53;;;;;;;1.83;1.70;;;17.60;90.90;;;;;;5017526;28;20998;-68
2022/08/08 03:45:21;;;;;;;1.43;1.33;;;17.50;91.20;;;;;;5034515;28;20173;-68
2022/08/08 03:47:56;;;;;;;2.43;2.00;;;17.50;91.60;;;;;;5034605;28;20221;-67
2022/08/08 03:50:23;;;;;;;1.57;1.43;;;17.50;91.90;;;;;;5035229;28;20405;-68
2022/08/08 03:52:49;;;;;;;2.70;1.80;;;17.30;92.50;;;;;;5034935;28;20451;-68
2022/08/08 03:55:17;;;;;;;1.77;1.67;;;17.30;93.10;;;;;;5035102;28;20490;-68
2022/08/08 03:57:48;;;;;;;1.60;1.50;;;17.30;93.50;;;;;;5035355;28;20336;-68
2022/08/08 04:00:16;;;;;;;2.17;1.97;;;17.30;93.90;;;;;;5035350;28;20406;-68
2022/08/08 04:02:43;;;;;;;3.23;1.73;;;17.30;93.90;;;;;;5034785;28;20412;-68
2022/08/08 04:05:09;;;;;;;2.10;1.73;;;17.30;94.50;;;;;;5035267;28;20409;-67
2022/08/08 04:07:37;;;;;;;2.33;2.00;;;17.30;94.90;;;;;;5014050;28;20457;-68
2022/08/08 04:10:03;;;;;;;1.70;1.60;;;17.40;94.80;;;;;;5026142;28;20413;-68
2022/08/08 04:12:28;;;;;;;2.33;1.70;;;17.50;94.40;;;;;;5034579;28;20488;-67
2022/08/08 04:14:54;;;;;;;2.03;1.60;;;17.50;94.50;;;;;;5034893;28;20447;-67
2022/08/08 04:17:20;;;;;;;2.07;1.97;;;17.50;94.50;;;;;;5034052;28;20240;-68
2022/08/08 04:19:46;;;;;;;1.60;1.50;;;17.50;94.70;;;;;;5034457;28;20427;-67
2022/08/08 04:22:11;;;;;;;2.20;2.00;;;17.40;95.50;;;;;;5034805;28;20169;-67
2022/08/08 04:24:37;;;;;;;2.30;2.10;;;17.00;96.20;;;;;;5016655;28;20186;-67
2022/08/08 04:27:03;;;;;;;1.70;1.60;;;16.90;96.60;;;;;;5034113;28;20222;-67
2022/08/08 04:29:29;;;;;;;1.90;1.73;;;16.90;97.20;;;;;;5034269;28;20170;-67
2022/08/08 04:31:54;;;;;;;2.17;1.83;;;16.90;97.30;;;;;;5033265;28;20601;-68
2022/08/08 04:34:20;;;;;;;2.30;2.10;;;17.10;97.40;;;;;;5033915;28;20496;-67
2022/08/08 04:36:45;;;;;;;2.27;1.63;;;17.10;97.50;;;;;;5034236;28;20187;-67
2022/08/08 04:39:11;;;;;;;2.20;2.00;;;17.30;97.20;;;;;;5032891;28;20174;-67
2022/08/08 04:41:36;;;;;;;2.20;2.00;;;17.20;97.10;;;;;;5034398;28;20628;-67
2022/08/08 04:44:02;;;;;;;2.20;1.60;;;17.20;97.40;;;;;;5034298;28;20525;-67
2022/08/08 04:46:28;;;;;;;4.17;1.87;;;17.30;97.90;;;;;;5016258;28;20220;-67
2022/08/08 04:48:53;;;;;;;1.87;1.67;;;17.10;98.10;;;;;;5033998;28;20644;-67
2022/08/08 04:51:19;;;;;;;2.00;1.90;;;17.00;98.60;;;;;;5034262;28;20207;-68
2022/08/08 04:53:44;;;;;;;1.97;1.77;;;17.10;99.00;;;;;;5032958;28;20171;-68
2022/08/08 04:56:11;;;;;;;6.97;2.13;;;17.30;98.70;;;;;;5033085;28;20296;-68
2022/08/08 04:58:37;;;;;;;2.80;1.93;;;17.40;98.60;;;;;;5033732;28;20217;-68
2022/08/08 05:01:02;;;;;;;1.80;1.70;;;17.50;98.90;;;;;;5033912;28;20413;-67
2022/08/08 05:03:28;;;;;;;2.13;1.90;;;17.50;98.50;;;;;;5029893;28;20524;-67
2022/08/08 05:05:54;;;;;;;2.23;1.70;;;17.50;99.00;;;;;;5024309;28;20182;-68
2022/08/08 05:08:19;;;;;;;2.23;1.80;;;17.60;99.10;;;;;;5024788;28;20454;-71
2022/08/08 05:10:45;;;;;;;2.60;2.30;;;17.60;99.10;;;;;;5024077;28;20180;-71
2022/08/08 05:13:10;;;;;;;3.17;1.97;;;17.60;99.50;;;;;;5023973;28;20217;-71
2022/08/08 05:15:36;;;;;;;2.30;2.10;;;17.60;99.90;;;;;;5024326;28;20747;-72
2022/08/08 05:18:02;;;;;;;2.43;2.23;;;17.60;99.90;;;;;;5028648;28;20290;-72
2022/08/08 05:20:27;;;;;;;2.27;2.07;;;17.70;99.90;;;;;;5033562;28;20178;-72
2022/08/08 05:22:53;;;;;;;1.80;1.70;;;17.70;99.90;;;;;;5033378;28;20174;-71
2022/08/08 05:25:18;;;;;;;2.97;2.17;;;17.70;99.90;;;;;;5033289;28;20214;-71
2022/08/08 05:27:44;;;;;;;3.30;2.30;;;17.70;99.90;;;;;;5032848;28;20212;-71
2022/08/08 05:30:10;;;;;;;2.57;2.37;;;17.80;99.90;;;;;;5037227;28;20171;-71
2022/08/08 05:32:37;;;;;;;2.27;2.07;;;17.90;99.90;;;;;;5031306;28;20253;-71
2022/08/08 05:35:03;;;;;;;3.80;2.77;;;17.90;99.90;;;;;;5032977;28;20410;-72
2022/08/08 05:37:31;;;;;;;2.20;2.00;;;18.00;99.90;;;;;;5015365;28;20464;-72
2022/08/08 05:40:03;;;;;;;2.57;2.37;;;18.20;99.90;;;;;;5033509;28;20623;-73
2022/08/08 05:42:51;;;;;;;2.40;1.70;;;18.30;99.80;;;;;;5033019;28;20383;-71
2022/08/08 05:45:17;;;;;;;2.30;2.10;;;18.40;99.10;;;;;;5032957;28;20423;-72
2022/08/08 05:47:43;;;;;;;1.93;1.83;;;18.50;98.90;;;;;;5032654;28;20520;-71
2022/08/08 05:50:10;;;;;;;2.50;2.10;;;18.50;98.70;;;;;;5032402;28;20168;-71
2022/08/08 05:52:36;;;;;;;2.23;2.03;;;18.60;98.70;;;;;;5033008;28;20966;-72
2022/08/08 05:55:06;;;;;;;2.53;1.90;;;18.80;98.80;;;;;;5033302;28;20418;-72
2022/08/08 05:57:34;;;;;;;4.73;2.00;;;18.90;98.80;;;;;;5033694;28;20787;-72
2022/08/08 06:00:06;;;;;;;3.83;2.27;;;19.00;98.60;;;;;;5033941;28;20990;-72
2022/08/08 06:05:19;;;;;;;2.50;2.30;;;19.30;98.70;;;;;;5033371;28;20421;-71
2022/08/08 06:07:47;;;;;;;2.50;2.03;;;19.40;98.30;;;;;;5034072;28;20487;-72
2022/08/08 06:10:13;;;;;;;3.57;2.47;;;19.50;98.20;;;;;;5037040;28;20449;-71
2022/08/08 06:12:40;;;;;;;4.90;2.10;;;19.60;98.20;;;;;;5018281;28;20450;-72
2022/08/08 06:15:07;;;;;;;2.63;2.10;;;19.70;98.30;;;;;;5036810;28;20460;-72
2022/08/08 06:17:39;;;;;;;5.93;2.00;;;19.90;98.10;;;;;;5036749;28;20496;-72
2022/08/08 06:20:08;;;;;;;3.47;2.07;;;19.90;97.90;;;;;;5019021;28;20879;-72
2022/08/08 06:22:33;;;;;;;5.03;2.70;;;20.10;98.10;;;;;;5036807;28;20413;-72
2022/08/08 06:24:59;;;;;;;2.60;2.10;;;20.30;98.10;;;;;;5036786;28;20424;-71
2022/08/08 06:27:37;;;;;;;3.10;2.47;;;20.30;98.20;;;;;;5036727;28;20531;-72
2022/08/08 06:30:10;;;;;;;3.07;2.40;;;20.50;98.20;;;;;;5037731;28;20550;-74
2022/08/08 06:32:40;;;;;;;3.63;2.20;;;20.60;98.10;;;;;;5035487;28;20489;-71
2022/08/08 06:35:09;;;;;;;4.80;2.70;;;20.80;98.10;;;;;;5036393;28;20517;-71
2022/08/08 06:37:37;;;;;;;3.70;2.77;;;20.80;97.90;;;;;;5036678;28;20449;-71
2022/08/08 06:40:07;;;;;;;4.10;2.50;;;21.00;97.70;;;;;;5036668;28;20417;-71
2022/08/08 06:42:35;;;;;;;2.73;2.17;;;21.10;97.40;;;;;;5035153;28;20852;-71
2022/08/08 06:45:05;;;;;;;3.10;2.60;;;21.10;97.20;;;;;;5036153;28;20785;-71
2022/08/08 06:47:31;;;;;;;3.10;2.90;;;21.00;97.10;;;;;;5036075;28;20434;-71
2022/08/08 06:49:57;;;;;;;4.00;3.07;;;21.00;96.90;;;;;;5035840;28;20405;-71
2022/08/08 06:52:23;;;;;;;3.10;2.80;;;21.00;97.00;;;;;;5036564;28;20471;-71
2022/08/08 06:54:49;;;;;;;4.60;3.27;;;21.10;97.20;;;;;;5036613;28;20178;-71
2022/08/08 06:57:17;;;;;;;3.43;3.00;;;21.30;96.80;;;;;;5038594;28;20433;-72
2022/08/08 06:59:43;;;;;;;4.20;2.30;;;21.50;96.90;;;;;;5034693;28;20635;-71
2022/08/08 07:02:19;;;;;;;5.40;3.13;;;21.70;97.00;;;;;;5023682;28;20434;-71
2022/08/08 07:05:03;;;;;;;5.17;3.30;;;21.40;96.20;;;;;;5036570;28;20162;-71
2022/08/08 07:07:52;;;;;;;4.40;3.00;;;21.40;96.90;;;;;;5036373;28;20500;-72
2022/08/08 07:10:20;;;;;;;4.30;3.43;;;21.70;96.90;;;;;;5035537;28;20485;-72
2022/08/08 07:12:50;;;;;;;3.33;3.03;;;21.90;96.50;;;;;;5035813;28;20453;-70
2022/08/08 07:15:18;;;;;;;3.27;2.90;;;21.90;96.60;;;;;;5035878;28;20465;-71
2022/08/08 07:17:49;;;;;;;6.63;3.77;;;22.10;96.30;;;;;;5035422;28;20422;-71
2022/08/08 07:20:22;;;;;;;3.67;3.33;;;21.80;96.40;;;;;;5034953;28;20433;-71
2022/08/08 07:23:09;;;;;;;3.17;2.97;;;21.50;97.30;;;;;;5018294;28;20399;-71
2022/08/08 07:25:39;;;;;;;6.83;3.43;;;21.60;97.80;;;;;;5035590;28;20902;-71
2022/08/08 07:28:10;;;;;;;7.83;3.90;;;21.70;97.20;;;;;;5035139;28;20498;-71
2022/08/08 07:30:37;;;;;;;4.87;3.50;;;21.60;97.10;;;;;;5035722;28;20525;-72
2022/08/08 07:33:03;;;;;;;5.33;4.07;;;21.70;97.20;;;;;;5034299;28;20449;-71
2022/08/08 07:35:31;;;;;;;4.77;3.87;;;21.70;97.10;;;;;;5035921;28;20500;-71
2022/08/08 07:37:58;;;;;;;5.43;3.73;;;21.60;97.40;;;;;;5035560;28;20418;-71
2022/08/08 07:40:24;;;;;;;5.50;3.90;;;21.90;97.20;;;;;;5035222;28;20410;-72
2022/08/08 07:42:52;;;;;;;4.77;3.80;;;21.90;97.20;;;;;;5017546;28;20448;-72
2022/08/08 07:45:21;;;;;;;7.20;3.73;;;22.00;97.00;;;;;;5034868;28;20410;-71
2022/08/08 07:47:47;;;;;;;6.43;3.90;;;22.20;96.80;;;;;;5034916;28;20426;-71
2022/08/08 07:50:13;;;;;;;4.00;3.53;;;22.50;96.50;;;;;;5035581;28;20754;-72
2022/08/08 07:52:43;;;;;;;5.00;3.53;;;22.50;96.30;;;;;;5034956;28;20229;-71
2022/08/08 07:55:09;;;;;;;4.53;3.67;;;22.60;96.30;;;;;;5034935;28;20410;-72
2022/08/08 07:57:53;;;;;;;5.00;3.60;;;22.80;96.10;;;;;;5034035;28;20438;-72
2022/08/08 08:00:20;;;;;;;4.67;3.23;;;22.80;95.90;;;;;;5035195;28;20156;-71
2022/08/08 08:03:04;;;;;;;3.57;3.27;;;23.10;96.20;;;;;;5035010;28;20803;-72
2022/08/08 08:05:36;;;;;;;3.90;3.60;;;23.50;95.50;;;;;;5034978;28;20452;-72
2022/08/08 08:08:16;;;;;;;3.40;3.10;;;23.50;95.40;;;;;;5034873;28;20436;-72
2022/08/08 08:10:44;;;;;;;3.17;2.77;;;23.50;95.10;;;;;;5034850;28;20867;-71
2022/08/08 08:13:33;;;;;;;3.57;3.20;;;23.40;95.10;;;;;;5034242;28;20445;-72
2022/08/08 08:16:07;;;;;;;3.13;2.90;;;23.50;94.60;;;;;;5034600;28;20390;-71
2022/08/08 08:18:45;;;;;;;3.07;2.87;;;23.60;94.60;;;;;;5034813;28;20932;-72
2022/08/08 08:21:12;;;;;;;3.00;2.70;;;23.70;94.60;;;;;;5034834;28;20766;-71
2022/08/08 08:23:38;;;;;;;3.13;2.83;;;23.90;94.10;;;;;;5034384;28;20440;-71
2022/08/08 08:26:04;;;;;;;4.60;2.80;;;24.00;93.70;;;;;;5034417;28;20394;-71
2022/08/08 08:28:30;;;;;;;3.53;3.23;;;24.20;93.70;;;;;;5074419;23;20493;-70
2022/08/08 08:30:57;;;;;;;5.47;2.67;;;24.20;92.90;;;;;;5054485;28;20964;-69
2022/08/08 08:33:24;;;;;;;2.90;2.60;;;24.20;92.90;;;;;;5053411;28;20190;-70
2022/08/08 08:35:49;;;;;;;3.70;3.10;;;24.20;92.80;;;;;;5054856;28;20420;-69
2022/08/08 08:38:15;;;;;;;3.10;2.90;;;24.20;93.00;;;;;;5054747;28;20421;-69
2022/08/08 08:40:40;;;;;;;3.30;3.00;;;24.20;92.80;;;;;;5053286;28;20175;-69
2022/08/08 08:43:08;;;;;;;3.00;2.70;;;24.30;93.00;;;;;;5054682;28;20228;-69
2022/08/08 08:45:37;;;;;;;3.77;3.47;;;24.30;92.60;;;;;;5054343;28;20624;-70
2022/08/08 08:48:04;;;;;;;3.33;2.80;;;24.50;92.80;;;;;;5054409;28;20424;-69
2022/08/08 08:50:32;;;;;;;4.63;3.20;;;24.50;92.40;;;;;;5054659;28;20479;-69
2022/08/08 08:53:00;;;;;;;3.27;2.90;;;24.50;92.60;;;;;;5054174;28;20440;-69
2022/08/08 08:55:27;;;;;;;3.33;3.00;;;24.60;92.40;;;;;;5054278;28;20412;-70
2022/08/08 08:57:54;;;;;;;3.40;3.10;;;24.60;92.00;;;;;;5053669;28;20944;-69
2022/08/08 09:00:20;;;;;;;3.80;3.50;;;24.30;92.40;;;;;;5053931;28;20441;-69
2022/08/08 09:02:48;;;;;;;3.67;3.13;;;24.40;92.50;;;;;;5053807;28;20459;-69
2022/08/08 09:05:15;;;;;;;4.20;2.83;;;24.70;92.40;;;;;;5053664;28;20253;-69
2022/08/08 09:07:42;;;;;;;3.70;3.40;;;24.80;91.90;;;;;;5054083;28;20428;-69
2022/08/08 09:10:12;;;;;;;4.50;4.10;;;24.90;91.80;;;;;;5054472;28;20424;-69
2022/08/08 09:12:40;;;;;;;4.23;2.70;;;24.80;91.70;;;;;;5053899;28;20491;-69
2022/08/08 09:15:06;;;;;;;3.10;2.77;;;24.90;91.80;;;;;;5054247;28;20401;-69
2022/08/08 09:17:33;;;;;;;3.20;2.90;;;25.10;91.00;;;;;;5054405;28;20421;-70
2022/08/08 09:19:59;;;;;;;4.00;3.10;;;25.10;90.10;;;;;;5053729;28;20397;-70
2022/08/08 09:22:25;;;;;;;3.30;3.10;;;25.00;90.40;;;;;;5054835;28;20447;-70
2022/08/08 09:24:53;;;;;;;3.00;2.00;;;25.10;89.00;;;;;;5054114;28;20405;-70
2022/08/08 09:27:19;;;;;;;3.20;2.80;;;25.00;88.00;;;;;;5053369;28;20451;-70
2022/08/08 09:29:52;;;;;;;5.43;2.77;;;25.10;89.00;;;;;;5053905;28;20443;-69
2022/08/08 09:32:31;;;;;;;3.93;2.87;;;25.20;87.60;;;;;;5054428;28;20788;-70
2022/08/08 09:35:00;;;;;;;3.57;2.80;;;25.10;85.70;;;;;;5052210;28;20937;-69
2022/08/08 09:37:28;;;;;;;2.73;2.53;;;25.20;85.70;;;;;;5053489;28;21017;-70
2022/08/08 09:40:05;;;;;;;4.50;3.20;;;25.30;86.20;;;;;;5052847;28;20417;-69
2022/08/08 09:42:37;;;;;;;3.40;2.70;;;25.50;85.20;;;;;;5053364;28;20464;-70
2022/08/08 09:45:29;;;;;;;2.93;2.73;;;25.70;84.70;;;;;;5053676;28;20470;-69
2022/08/08 09:47:57;;;;;;;3.20;2.90;;;25.80;84.80;;;;;;5053298;28;20439;-70
2022/08/08 09:50:25;;;;;;;2.70;2.50;;;25.90;82.60;;;;;;5052753;28;20409;-70
2022/08/08 09:52:52;;;;;;;2.53;2.33;;;26.00;79.10;;;;;;5051193;28;20586;-70
2022/08/08 09:55:20;;;;;;;4.40;2.60;;;26.20;81.50;;;;;;5044893;28;20918;-71
2022/08/08 09:57:53;;;;;;;2.50;2.30;;;26.40;80.30;;;;;;5033534;28;20433;-70
2022/08/08 10:00:19;;;;;;;2.10;2.00;;;26.50;78.60;;;;;;5051557;28;20435;-70
2022/08/08 10:02:50;;;;;;;2.17;1.90;;;26.50;74.80;;;;;;5053590;28;20846;-70
2022/08/08 10:05:26;;;;;;;2.43;2.17;;;26.40;72.90;;;;;;5053435;28;20209;-70
2022/08/08 10:07:52;;;;;;;6.20;2.30;;;26.40;72.80;;;;;;5052957;28;20860;-71
2022/08/08 10:10:24;;;;;;;4.90;2.10;;;26.40;72.00;;;;;;5053018;28;20485;-70
2022/08/08 10:12:50;;;;;;;2.80;2.50;;;26.40;71.70;;;;;;5053261;28;20632;-71
2022/08/08 10:15:15;;;;;;;2.60;2.00;;;26.70;72.00;;;;;;5053156;28;20484;-71
2022/08/08 10:17:50;;;;;;;2.40;2.20;;;27.00;71.10;;;;;;5053299;28;20663;-71
2022/08/08 10:20:15;;;;;;;2.43;1.70;;;26.90;71.40;;;;;;5053255;28;20162;-71
2022/08/08 10:22:59;;;;;;;2.33;2.10;;;26.80;73.10;;;;;;5053379;28;20948;-71
2022/08/08 10:25:25;;;;;;;2.23;2.07;;;26.80;72.70;;;;;;5053343;28;20177;-71
2022/08/08 10:27:52;;;;;;;2.37;2.20;;;26.90;72.80;;;;;;5053017;28;20484;-71
2022/08/08 10:30:23;;;;;;;2.47;2.27;;;27.10;73.40;;;;;;5053117;28;20427;-71
2022/08/08 10:32:51;;;;;;;3.83;2.57;;;27.30;72.00;;;;;;5052573;28;20433;-70
2022/08/08 10:35:20;;;;;;;2.60;2.40;;;27.30;72.90;;;;;;5052723;28;20408;-70
2022/08/08 10:37:55;;;;;;;2.63;2.43;;;27.50;71.80;;;;;;5053177;28;20424;-71
2022/08/08 10:40:23;;;;;;;2.93;2.53;;;27.40;72.80;;;;;;5053239;28;20412;-71
2022/08/08 10:42:54;;;;;;;2.80;2.60;;;27.20;74.30;;;;;;5052899;28;20401;-71
2022/08/08 10:45:20;;;;;;;3.40;2.30;;;27.30;73.80;;;;;;5053256;28;20378;-71
2022/08/08 10:47:58;;;;;;;2.97;2.77;;;27.60;74.00;;;;;;5053075;28;20995;-71
2022/08/08 10:50:34;;;;;;;2.30;2.00;;;27.80;72.60;;;;;;5052361;28;20186;-71
2022/08/08 10:53:02;;;;;;;2.77;2.57;;;28.20;73.40;;;;;;5052862;28;20429;-71
2022/08/08 10:55:28;;;;;;;2.70;2.50;;;28.20;69.30;;;;;;5056521;28;20401;-71
2022/08/08 10:57:58;;;;;;;2.60;2.37;;;28.30;68.30;;;;;;5056558;28;20463;-71
2022/08/08 11:00:26;;;;;;;1.97;1.87;;;28.00;67.60;;;;;;5056242;28;20409;-71
2022/08/08 11:02:55;;;;;;;2.60;1.83;;;28.50;66.10;;;;;;5056137;28;20406;-70
2022/08/08 11:05:21;;;;;;;2.53;2.00;;;29.90;60.10;;;;;;5055786;28;20480;-71
2022/08/08 11:07:50;;;;;;;2.33;1.80;;;30.50;58.50;;;;;;5056213;28;20427;-71
2022/08/08 11:10:18;;;;;;;2.20;2.00;;;30.90;57.00;;;;;;5056476;28;20454;-71
2022/08/08 11:12:49;;;;;;;2.00;1.57;;;31.80;55.20;;;;;;5056416;28;20540;-71
2022/08/08 11:15:27;;;;;;;3.40;1.87;;;31.30;54.80;;;;;;5056217;28;20386;-71
2022/08/08 11:17:53;;;;;;;1.80;1.70;;;31.60;54.00;;;;;;5056050;28;20416;-71
2022/08/08 11:20:22;;;;;;;1.97;1.70;;;32.00;53.20;;;;;;5055665;28;20402;-71
2022/08/08 11:22:56;;;;;;;2.40;1.90;;;31.50;53.80;;;;;;5055821;28;20159;-71
2022/08/08 11:25:32;;;;;;;2.03;1.83;;;32.00;52.70;;;;;;5056285;28;20866;-71
2022/08/08 11:28:00;;;;;;;2.67;1.60;;;32.00;52.70;;;;;;5056054;28;20555;-70
2022/08/08 11:30:30;;;;;;;1.70;1.60;;;32.70;51.70;;;;;;5055720;28;20484;-71
2022/08/08 11:33:00;;;;;;;2.07;1.87;;;32.20;50.90;;;;;;5055764;28;20453;-71
2022/08/08 11:35:26;;;;;;;2.00;1.80;;;33.00;49.30;;;;;;5054923;28;20413;-71
2022/08/08 11:37:52;;;;;;;1.97;1.77;;;34.20;45.40;;;;;;5056543;28;20421;-72
2022/08/08 11:40:18;;;;;;;1.73;1.63;;;34.10;45.90;;;;;;5056657;28;20416;-72
2022/08/08 11:42:44;;;;;;;2.10;1.60;;;34.00;43.90;;;;;;5057684;28;20632;-71
2022/08/08 11:45:11;;;;;;;1.70;1.30;;;33.80;43.70;;;;;;5057289;28;20602;-71
2022/08/08 11:47:38;;;;;;;2.50;1.57;;;34.40;43.00;;;;;;5056195;28;20185;-71
2022/08/08 11:50:07;;;;;;;1.70;1.60;;;33.30;43.90;;;;;;5055828;28;20771;-71
2022/08/08 11:52:35;;;;;;;1.63;1.53;;;34.30;43.00;;;;;;5056170;28;20437;-71
2022/08/08 11:55:01;;;;;;;1.53;1.43;;;34.00;43.50;;;;;;5055344;28;20397;-71
2022/08/08 11:57:28;;;;;;;2.87;1.80;;;33.90;43.20;;;;;;5055310;28;20452;-71
2022/08/08 11:59:56;;;;;;;1.50;1.40;;;33.40;43.60;;;;;;5055547;28;20212;-71
2022/08/08 12:02:26;;;;;;;2.00;1.70;;;34.20;44.30;;;;;;5055331;28;20917;-71
2022/08/08 12:05:09;;;;;;;1.87;1.60;;;34.20;42.50;;;;;;5054709;28;20413;-71
2022/08/08 12:07:53;;;;;;;2.37;1.60;;;33.10;42.40;;;;;;5055506;28;20429;-71
2022/08/08 12:10:22;;;;;;;1.33;1.23;;;33.30;43.20;;;;;;5055562;28;20429;-71
2022/08/08 12:12:49;;;;;;;1.60;1.50;;;34.60;41.90;;;;;;5055184;28;20848;-71
2022/08/08 12:15:29;;;;;;;1.77;1.67;;;35.10;40.40;;;;;;5037423;28;20412;-71
2022/08/08 12:17:55;;;;;;;1.33;1.23;;;34.90;40.50;;;;;;5055007;28;20504;-72
2022/08/08 12:20:21;;;;;;;1.83;1.47;;;34.20;41.00;;;;;;5055000;28;20821;-70
2022/08/08 12:22:52;;;;;;;1.40;1.30;;;34.10;41.10;;;;;;5055968;28;20206;-71
2022/08/08 12:25:24;;;;;;;1.67;1.57;;;33.80;41.80;;;;;;5036969;28;20297;-71
2022/08/08 12:27:51;;;;;;;1.70;1.60;;;34.20;41.50;;;;;;5054594;28;20445;-71
2022/08/08 12:30:29;;;;;;;2.30;1.47;;;35.40;40.30;;;;;;5055193;28;20416;-71
2022/08/08 12:32:58;;;;;;;2.40;1.50;;;36.00;39.80;;;;;;5054832;28;20433;-71
2022/08/08 12:35:26;;;;;;;1.83;1.30;;;36.70;39.20;;;;;;5053276;28;20417;-71
2022/08/08 12:38:02;;;;;;;1.40;1.30;;;37.10;37.60;;;;;;5054823;28;20421;-71
2022/08/08 12:40:46;;;;;;;3.20;1.70;;;38.10;36.80;;;;;;5055288;28;20382;-72
2022/08/08 12:43:14;;;;;;;2.27;1.43;;;36.70;36.80;;;;;;5055177;28;20780;-71
2022/08/08 12:45:43;;;;;;;1.50;1.40;;;36.10;37.90;;;;;;5053794;28;20424;-71
2022/08/08 12:48:18;;;;;;;2.00;1.40;;;36.40;37.70;;;;;;5043775;28;20433;-71
2022/08/08 12:50:49;;;;;;;3.73;1.53;;;36.30;38.00;;;;;;5054122;28;20465;-72
2022/08/08 12:53:25;;;;;;;2.80;1.73;;;36.80;37.30;;;;;;5055075;28;20504;-72
2022/08/08 12:55:57;;;;;;;2.47;2.00;;;36.20;37.90;;;;;;5054562;28;20393;-71
2022/08/08 12:58:25;;;;;;;1.63;1.30;;;36.10;38.60;;;;;;5052943;28;20443;-71
2022/08/08 13:00:51;;;;;;;1.50;1.40;;;37.20;36.80;;;;;;5055301;28;20818;-71
2022/08/08 13:03:28;;;;;;;1.20;1.10;;;36.00;37.10;;;;;;5054798;28;20488;-71
2022/08/08 13:06:08;;;;;;;2.07;1.30;;;36.80;38.30;;;;;;5053767;28;20174;-72
2022/08/08 13:08:52;;;;;;;1.33;1.20;;;38.20;35.70;;;;;;5054244;28;20941;-72
2022/08/08 13:11:21;;;;;;;1.60;1.30;;;39.10;34.00;;;;;;5054279;28;20390;-71
2022/08/08 13:14:09;;;;;;;1.63;1.33;;;39.10;34.70;;;;;;5053370;28;20408;-71
2022/08/08 13:16:35;;;;;;;2.10;1.47;;;38.40;33.80;;;;;;5053305;28;20377;-71
2022/08/08 13:19:03;;;;;;;1.40;1.30;;;38.10;35.30;;;;;;5053709;28;20397;-72
2022/08/08 13:21:30;;;;;;;1.50;1.40;;;38.10;34.10;;;;;;5053771;28;20484;-71
2022/08/08 13:23:56;;;;;;;2.00;1.20;;;38.40;35.00;;;;;;5053994;28;20806;-71
2022/08/08 13:26:22;;;;;;;3.10;1.33;;;39.00;32.90;;;;;;5052214;28;20762;-71
2022/08/08 13:28:47;;;;;;;2.33;1.10;;;38.50;33.80;;;;;;5053554;28;20443;-71